createdAt,value
2022-11-01T00:02:10.346Z,31.40
2022-11-01T00:04:37.442Z,38.63
2022-11-01T00:07:05.032Z,42.37
2022-11-01T00:09:32.335Z,31.73
2022-11-01T00:11:59.351Z,37.47
2022-11-01T00:14:26.390Z,43.77
2022-11-01T00:16:53.448Z,36.77
2022-11-01T00:19:20.972Z,35.77
2022-11-01T00:21:48.097Z,39.77
2022-11-01T00:24:15.175Z,35.57
2022-11-01T00:26:42.579Z,41.83
2022-11-01T00:29:11.217Z,39.83
2022-11-01T00:31:38.279Z,43.20
2022-11-01T00:34:06.957Z,41.13
2022-11-01T00:36:36.040Z,38.03
2022-11-01T00:39:04.167Z,39.60
2022-11-01T00:41:31.283Z,40.93
2022-11-01T00:43:58.251Z,45.53
2022-11-01T00:46:25.873Z,36.43
2022-11-01T00:48:52.978Z,43.40
2022-11-01T00:51:19.967Z,41.30
2022-11-01T00:53:46.899Z,38.97
2022-11-01T00:56:13.907Z,35.40
2022-11-01T00:58:41.057Z,40.43
2022-11-01T01:01:08.411Z,42.03
2022-11-01T01:03:36.012Z,33.47
2022-11-01T01:06:03.083Z,37.17
2022-11-01T01:08:30.269Z,34.47
2022-11-01T01:10:57.278Z,39.70
2022-11-01T01:13:24.262Z,35.33
2022-11-01T01:15:51.253Z,37.20
2022-11-01T01:18:18.496Z,39.00
2022-11-01T01:20:45.829Z,34.97
2022-11-01T01:23:12.996Z,37.40
2022-11-01T01:25:43.362Z,35.50
2022-11-01T01:28:10.838Z,41.87
2022-11-01T01:30:41.707Z,40.73
2022-11-01T01:35:39.210Z,34.20
2022-11-01T01:38:08.152Z,42.30
2022-11-01T01:40:36.084Z,29.40
2022-11-01T01:43:03.426Z,33.33
2022-11-01T01:45:32.793Z,30.37
2022-11-01T01:48:26.697Z,29.37
2022-11-01T01:51:03.558Z,31.50
2022-11-01T01:53:37.452Z,31.30
2022-11-01T01:56:37.452Z,36.40
2022-11-01T01:59:09.176Z,41.47
2022-11-01T02:01:40.643Z,36.27
2022-11-01T02:04:46.482Z,38.47
2022-11-01T02:07:13.386Z,37.30
2022-11-01T02:09:40.952Z,32.23
2022-11-01T02:12:10.129Z,32.70
2022-11-01T02:14:37.417Z,31.10
2022-11-01T02:17:12.629Z,38.33
2022-11-01T02:19:57.353Z,35.70
2022-11-01T02:22:45.524Z,42.27
2022-11-01T02:25:30.238Z,37.17
2022-11-01T02:28:51.932Z,40.87
2022-11-01T02:31:53.672Z,39.60
2022-11-01T02:34:34.457Z,31.40
2022-11-01T02:37:15.258Z,34.07
2022-11-01T02:39:51.421Z,37.63
2022-11-01T02:42:30.336Z,38.07
2022-11-01T02:45:07.432Z,38.53
2022-11-01T02:47:35.517Z,44.80
2022-11-01T02:50:09.746Z,36.87
2022-11-01T02:52:41.042Z,26.73
2022-11-01T02:55:34.326Z,38.77
2022-11-01T02:58:25.843Z,33.47
2022-11-01T03:00:53.437Z,31.83
2022-11-01T03:03:26.693Z,34.53
2022-11-01T03:06:06.433Z,30.73
2022-11-01T03:08:53.642Z,29.00
2022-11-01T03:11:36.977Z,29.30
2022-11-01T03:14:06.827Z,35.33
2022-11-01T03:16:47.224Z,33.60
2022-11-01T03:19:40.523Z,32.23
2022-11-01T03:22:16.962Z,28.67
2022-11-01T03:24:51.374Z,34.23
2022-11-01T03:27:34.727Z,34.30
2022-11-01T03:30:14.250Z,30.00
2022-11-01T03:32:49.606Z,32.50
2022-11-01T03:35:23.394Z,30.57
2022-11-01T03:37:54.743Z,30.60
2022-11-01T03:40:24.946Z,36.40
2022-11-01T03:42:57.882Z,33.23
2022-11-01T03:45:27.048Z,33.23
2022-11-01T03:47:54.482Z,34.27
2022-11-01T03:50:27.921Z,33.10
2022-11-01T03:52:55.412Z,33.83
2022-11-01T03:55:23.384Z,30.23
2022-11-01T03:57:57.508Z,29.50
2022-11-01T04:00:31.902Z,26.90
2022-11-01T04:03:00.058Z,25.20
2022-11-01T04:05:30.117Z,30.07
2022-11-01T04:07:57.554Z,28.10
2022-11-01T04:10:26.470Z,29.13
2022-11-01T04:12:54.108Z,24.97
2022-11-01T04:15:42.649Z,28.30
2022-11-01T04:18:43.533Z,24.20
2022-11-01T04:21:26.138Z,28.17
2022-11-01T04:23:53.523Z,29.87
2022-11-01T04:26:23.538Z,27.67
2022-11-01T04:28:57.450Z,27.03
2022-11-01T04:31:31.578Z,27.80
2022-11-01T04:34:00.395Z,26.13
2022-11-01T04:36:28.160Z,25.60
2022-11-01T04:38:57.460Z,32.10
2022-11-01T04:41:27.571Z,23.40
2022-11-01T04:43:58.791Z,23.27
2022-11-01T04:46:28.097Z,21.60
2022-11-01T04:48:55.037Z,29.10
2022-11-01T04:51:22.045Z,29.23
2022-11-01T04:53:48.973Z,23.27
2022-11-01T04:56:17.152Z,25.17
2022-11-01T04:58:46.391Z,26.33
2022-11-01T05:01:15.228Z,25.27
2022-11-01T05:03:43.165Z,22.37
2022-11-01T05:06:10.705Z,30.10
2022-11-01T05:08:37.821Z,30.50
2022-11-01T05:11:04.959Z,27.20
2022-11-01T05:13:32.201Z,26.37
2022-11-01T05:16:19.812Z,24.23
2022-11-01T05:18:48.818Z,23.27
2022-11-01T05:21:15.913Z,25.90
2022-11-01T05:23:42.895Z,29.47
2022-11-01T05:26:10.180Z,22.63
2022-11-01T05:28:37.386Z,24.33
2022-11-01T05:31:04.252Z,23.43
2022-11-01T05:33:31.174Z,26.67
2022-11-01T05:36:02.088Z,26.57
2022-11-01T05:38:29.308Z,20.77
2022-11-01T05:40:56.333Z,19.77
2022-11-01T05:43:23.232Z,18.80
2022-11-01T05:45:51.398Z,19.73
2022-11-01T05:48:18.367Z,19.30
2022-11-01T05:50:47.039Z,21.70
2022-11-01T05:53:14.397Z,20.77
2022-11-01T05:55:41.396Z,18.40
2022-11-01T05:58:09.159Z,20.47
2022-11-01T06:00:36.253Z,19.40
2022-11-01T06:03:03.894Z,18.70
2022-11-01T06:05:32.315Z,26.70
2022-11-01T06:08:01.997Z,20.87
2022-11-01T06:10:29.032Z,17.37
2022-11-01T06:12:56.245Z,19.53
2022-11-01T06:15:24.178Z,18.97
2022-11-01T06:17:59.134Z,18.57
2022-11-01T06:20:29.848Z,18.87
2022-11-01T06:22:58.767Z,21.33
2022-11-01T06:25:27.859Z,19.97
2022-11-01T06:27:54.864Z,22.67
2022-11-01T06:30:22.288Z,24.00
2022-11-01T06:32:49.287Z,21.67
2022-11-01T06:35:16.372Z,22.90
2022-11-01T06:37:43.468Z,19.77
2022-11-01T06:40:13.223Z,24.03
2022-11-01T06:42:45.372Z,23.90
2022-11-01T06:45:14.086Z,28.40
2022-11-01T06:47:41.118Z,29.00
2022-11-01T06:50:08.683Z,22.50
2022-11-01T06:52:35.617Z,32.37
2022-11-01T06:55:02.487Z,28.87
2022-11-01T06:57:29.477Z,20.73
2022-11-01T06:59:57.462Z,22.80
2022-11-01T07:02:29.673Z,22.13
2022-11-01T07:04:57.133Z,18.93
2022-11-01T07:07:24.232Z,19.67
2022-11-01T07:09:51.227Z,20.27
2022-11-01T07:12:18.682Z,19.73
2022-11-01T07:14:45.698Z,22.63
2022-11-01T07:17:12.621Z,16.60
2022-11-01T07:19:39.579Z,20.17
2022-11-01T07:22:07.102Z,23.67
2022-11-01T07:24:34.053Z,24.40
2022-11-01T07:27:01.058Z,21.97
2022-11-01T07:29:27.997Z,22.17
2022-11-01T07:31:54.957Z,22.53
2022-11-01T07:34:21.926Z,21.90
2022-11-01T07:36:53.414Z,21.10
2022-11-01T07:39:20.398Z,22.90
2022-11-01T07:41:48.232Z,21.60
2022-11-01T07:44:15.169Z,19.00
2022-11-01T07:46:42.128Z,18.97
2022-11-01T07:49:09.208Z,21.40
2022-11-01T07:51:36.078Z,18.00
2022-11-01T07:54:03.024Z,17.20
2022-11-01T07:56:30.159Z,19.70
2022-11-01T07:58:57.073Z,20.70
2022-11-01T08:01:24.260Z,19.20
2022-11-01T08:03:51.335Z,18.13
2022-11-01T08:06:18.459Z,20.03
2022-11-01T08:08:46.657Z,20.30
2022-11-01T08:11:13.541Z,19.50
2022-11-01T08:13:40.619Z,22.57
2022-11-01T08:16:07.727Z,19.10
2022-11-01T08:18:34.654Z,22.00
2022-11-01T08:21:01.934Z,17.50
2022-11-01T08:23:28.961Z,16.63
2022-11-01T08:25:58.774Z,17.93
2022-11-01T08:28:28.852Z,17.67
2022-11-01T08:30:55.854Z,14.17
2022-11-01T08:33:22.777Z,14.30
2022-11-01T08:35:50.805Z,15.93
2022-11-01T08:38:19.187Z,19.33
2022-11-01T08:40:46.190Z,19.53
2022-11-01T08:43:13.113Z,15.23
2022-11-01T08:45:40.547Z,20.90
2022-11-01T08:48:09.137Z,15.30
2022-11-01T08:50:36.693Z,15.10
2022-11-01T08:53:09.088Z,14.27
2022-11-01T08:55:38.133Z,13.57
2022-11-01T08:58:08.470Z,15.20
2022-11-01T09:00:36.515Z,17.17
2022-11-01T09:03:04.208Z,14.87
2022-11-01T09:05:31.707Z,16.27
2022-11-01T09:08:02.760Z,14.37
2022-11-01T09:10:31.180Z,17.67
2022-11-01T09:13:02.833Z,18.17
2022-11-01T09:15:31.034Z,15.83
2022-11-01T09:17:58.103Z,14.73
2022-11-01T09:20:26.615Z,16.70
2022-11-01T09:22:53.532Z,15.73
2022-11-01T09:25:20.617Z,15.00
2022-11-01T09:27:47.645Z,13.03
2022-11-01T09:30:15.600Z,15.17
2022-11-01T09:32:42.567Z,15.23
2022-11-01T09:35:09.793Z,13.23
2022-11-01T09:37:36.723Z,14.47
2022-11-01T09:40:04.744Z,14.67
2022-11-01T09:42:39.996Z,12.10
2022-11-01T09:45:30.327Z,13.83
2022-11-01T09:47:59.528Z,15.13
2022-11-01T09:50:38.389Z,11.07
2022-11-01T09:53:13.641Z,12.73
2022-11-01T09:55:58.269Z,12.93
2022-11-01T09:59:03.847Z,12.03
2022-11-01T10:01:53.774Z,13.67
2022-11-01T10:04:53.365Z,15.13
2022-11-01T10:07:46.180Z,13.20
2022-11-01T10:10:34.042Z,13.70
2022-11-01T10:13:35.695Z,12.63
2022-11-01T10:16:05.854Z,13.37
2022-11-01T10:18:41.780Z,13.40
2022-11-01T10:21:16.359Z,13.80
2022-11-01T10:23:44.947Z,13.80
2022-11-01T10:26:26.134Z,12.50
2022-11-01T10:29:35.410Z,14.47
2022-11-01T10:32:05.835Z,11.37
2022-11-01T10:34:39.417Z,12.17
2022-11-01T10:37:29.527Z,12.90
2022-11-01T10:40:15.935Z,20.97
2022-11-01T10:42:42.885Z,12.80
2022-11-01T10:45:18.659Z,12.67
2022-11-01T10:47:48.529Z,11.90
2022-11-01T10:50:24.709Z,11.67
2022-11-01T10:52:59.120Z,16.30
2022-11-01T10:55:51.925Z,11.30
2022-11-01T10:58:39.528Z,13.70
2022-11-01T11:01:12.043Z,11.10
2022-11-01T11:03:42.235Z,13.80
2022-11-01T11:06:12.706Z,12.77
2022-11-01T11:08:44.012Z,12.13
2022-11-01T11:11:20.545Z,15.90
2022-11-01T11:13:53.527Z,10.80
2022-11-01T11:16:59.816Z,11.83
2022-11-01T11:19:29.663Z,10.67
2022-11-01T11:21:58.576Z,10.93
2022-11-01T11:24:33.521Z,11.97
2022-11-01T11:27:03.485Z,10.53
2022-11-01T11:29:51.131Z,10.30
2022-11-01T11:32:20.124Z,14.53
2022-11-01T11:35:00.046Z,12.60
2022-11-01T11:37:32.501Z,10.27
2022-11-01T11:40:19.426Z,10.10
2022-11-01T11:42:49.139Z,10.37
2022-11-01T11:45:28.266Z,14.20
2022-11-01T11:47:58.201Z,9.77
2022-11-01T11:50:32.684Z,10.50
2022-11-01T11:53:19.159Z,9.83
2022-11-01T11:55:53.455Z,10.33
2022-11-01T11:58:48.752Z,10.70
2022-11-01T12:01:23.186Z,10.37
2022-11-01T12:04:06.475Z,11.87
2022-11-01T12:06:41.470Z,11.40
2022-11-01T12:09:47.963Z,11.33
2022-11-01T12:12:22.962Z,10.00
2022-11-01T12:14:50.627Z,10.20
2022-11-01T12:17:47.062Z,12.80
2022-11-01T12:20:20.353Z,10.63
2022-11-01T12:22:56.682Z,15.43
2022-11-01T12:25:25.740Z,10.43
2022-11-01T12:27:59.071Z,12.43
2022-11-01T12:30:30.334Z,10.10
2022-11-01T12:33:00.175Z,10.50
2022-11-01T12:35:42.144Z,10.67
2022-11-01T12:38:17.314Z,12.60
2022-11-01T12:40:50.305Z,11.13
2022-11-01T12:43:28.077Z,10.50
2022-11-01T12:46:04.990Z,10.87
2022-11-01T12:48:44.504Z,11.07
2022-11-01T12:51:27.339Z,9.27
2022-11-01T12:54:12.194Z,10.50
2022-11-01T12:56:40.044Z,12.70
2022-11-01T12:59:12.850Z,11.37
2022-11-01T13:01:58.006Z,17.13
2022-11-01T13:04:59.279Z,11.17
2022-11-01T13:07:50.434Z,10.63
2022-11-01T13:13:25.139Z,11.20
2022-11-01T13:15:58.156Z,12.07
2022-11-01T13:18:39.885Z,14.30
2022-11-01T13:21:31.645Z,10.73
2022-11-01T13:24:59.945Z,13.80
2022-11-01T13:27:38.821Z,10.53
2022-11-01T13:30:20.202Z,12.03
2022-11-01T13:33:50.181Z,13.60
2022-11-01T13:36:39.339Z,12.10
2022-11-01T13:39:21.358Z,11.70
2022-11-01T13:42:16.341Z,13.13
2022-11-01T13:45:10.276Z,11.70
2022-11-01T13:48:07.438Z,13.37
2022-11-01T13:51:04.595Z,12.20
2022-11-01T13:54:35.833Z,13.47
2022-11-01T13:57:12.300Z,14.07
2022-11-01T13:59:39.877Z,14.27
2022-11-01T14:02:25.643Z,13.87
2022-11-01T14:05:11.281Z,14.77
2022-11-01T14:07:44.060Z,13.77
2022-11-01T14:10:31.165Z,17.43
2022-11-01T14:13:10.956Z,14.93
2022-11-01T14:15:59.468Z,16.37
2022-11-01T14:18:27.858Z,14.67
2022-11-01T14:20:57.015Z,18.20
2022-11-01T14:23:30.177Z,15.50
2022-11-01T14:26:19.105Z,16.43
2022-11-01T14:28:52.181Z,14.97
2022-11-01T14:31:23.956Z,16.30
2022-11-01T14:33:57.405Z,19.43
2022-11-01T14:36:31.355Z,19.47
2022-11-01T14:39:25.589Z,19.37
2022-11-01T14:41:56.320Z,17.47
2022-11-01T14:44:33.694Z,16.33
2022-11-01T14:47:15.982Z,18.80
2022-11-01T14:49:45.077Z,19.37
2022-11-01T14:52:35.981Z,23.00
2022-11-01T14:55:20.801Z,21.13
2022-11-01T14:57:49.545Z,22.27
2022-11-01T15:00:30.501Z,25.50
2022-11-01T15:05:27.829Z,21.60
2022-11-01T15:08:00.550Z,26.03
2022-11-01T15:10:28.379Z,25.53
2022-11-01T15:13:03.942Z,23.90
2022-11-01T15:15:38.092Z,27.43
2022-11-01T15:18:17.481Z,23.47
2022-11-01T15:20:55.938Z,29.83
2022-11-01T15:23:35.347Z,26.37
2022-11-01T15:26:09.235Z,25.80
2022-11-01T15:28:48.056Z,29.37
2022-11-01T15:31:15.276Z,25.23
2022-11-01T15:34:02.117Z,24.90
2022-11-01T15:36:40.022Z,23.97
2022-11-01T15:39:38.121Z,28.53
2022-11-01T15:42:24.120Z,21.60
2022-11-01T15:44:51.077Z,31.40
2022-11-01T15:47:26.372Z,28.13
2022-11-01T15:50:02.424Z,23.17
2022-11-01T15:52:32.890Z,26.73
2022-11-01T15:55:07.525Z,29.40
2022-11-01T15:57:44.847Z,28.73
2022-11-01T16:00:23.116Z,26.53
2022-11-01T16:03:09.738Z,28.27
2022-11-01T16:05:49.387Z,32.17
2022-11-01T16:08:28.584Z,25.87
2022-11-01T16:10:56.409Z,34.60
2022-11-01T16:13:23.736Z,30.63
2022-11-01T16:16:10.963Z,28.77
2022-11-01T16:18:41.963Z,34.33
2022-11-01T16:21:21.012Z,34.13
2022-11-01T16:24:25.426Z,37.60
2022-11-01T16:26:54.777Z,35.93
2022-11-01T16:29:53.009Z,37.57
2022-11-01T16:32:31.056Z,33.93
2022-11-01T16:35:00.346Z,30.13
2022-11-01T16:37:29.795Z,34.57
2022-11-01T16:39:59.225Z,31.57
2022-11-01T16:42:26.313Z,30.73
2022-11-01T16:44:56.909Z,35.83
2022-11-01T16:47:24.532Z,31.07
2022-11-01T16:49:56.933Z,38.90
2022-11-01T16:52:24.041Z,31.30
2022-11-01T16:54:51.569Z,33.07
2022-11-01T16:57:27.244Z,33.07
2022-11-01T16:59:55.314Z,32.00
2022-11-01T17:02:26.332Z,39.23
2022-11-01T17:04:59.283Z,44.23
2022-11-01T17:07:26.319Z,35.63
2022-11-01T17:09:53.279Z,38.03
2022-11-01T17:12:21.473Z,38.03
2022-11-01T17:14:48.477Z,39.80
2022-11-01T17:17:19.841Z,33.30
2022-11-01T17:19:54.912Z,37.30
2022-11-01T17:22:30.072Z,37.07
2022-11-01T17:24:57.421Z,33.43
2022-11-01T17:27:24.471Z,33.00
2022-11-01T17:29:51.871Z,35.70
2022-11-01T17:32:20.461Z,32.80
2022-11-01T17:34:49.432Z,37.13
2022-11-01T17:37:21.021Z,36.40
2022-11-01T17:39:48.027Z,32.60
2022-11-01T17:42:14.901Z,37.00
2022-11-01T17:44:42.305Z,38.30
2022-11-01T17:47:14.815Z,35.00
2022-11-01T17:49:41.727Z,37.53
2022-11-01T17:52:09.067Z,39.00
2022-11-01T17:54:36.036Z,32.90
2022-11-01T17:57:03.046Z,34.50
2022-11-01T17:59:31.015Z,33.00
2022-11-01T18:01:58.166Z,35.33
2022-11-01T18:04:25.142Z,43.33
2022-11-01T18:06:52.176Z,37.23
2022-11-01T18:09:25.578Z,33.97
2022-11-01T18:12:05.818Z,38.87
2022-11-01T18:14:54.966Z,38.40
2022-11-01T18:18:03.617Z,33.87
2022-11-01T18:20:39.701Z,45.17
2022-11-01T18:23:13.212Z,41.30
2022-11-01T18:25:50.560Z,36.50
2022-11-01T18:28:19.482Z,39.03
2022-11-01T18:31:23.793Z,38.70
2022-11-01T18:34:05.848Z,40.47
2022-11-01T18:36:56.758Z,40.53
2022-11-01T18:39:33.400Z,33.07
2022-11-01T18:42:01.260Z,36.27
2022-11-01T18:44:28.307Z,36.97
2022-11-01T18:47:06.359Z,36.53
2022-11-01T18:49:33.528Z,45.00
2022-11-01T18:52:00.600Z,41.47
2022-11-01T18:54:32.098Z,41.03
2022-11-01T18:57:16.517Z,32.20
2022-11-01T18:59:47.894Z,33.00
2022-11-01T19:02:21.628Z,37.17
2022-11-01T19:04:52.507Z,34.57
2022-11-01T19:07:39.474Z,36.33
2022-11-01T19:10:21.206Z,36.83
2022-11-01T19:12:54.903Z,36.03
2022-11-01T19:15:25.747Z,35.70
2022-11-01T19:17:58.639Z,36.03
2022-11-01T19:20:34.489Z,40.90
2022-11-01T19:23:13.218Z,48.10
2022-11-01T19:25:43.848Z,41.93
2022-11-01T19:28:24.212Z,43.83
2022-11-01T19:30:53.118Z,35.93
2022-11-01T19:33:39.009Z,36.67
2022-11-01T19:36:21.044Z,42.03
2022-11-01T19:38:49.218Z,48.47
2022-11-01T19:41:22.001Z,48.10
2022-11-01T19:43:49.229Z,37.27
2022-11-01T19:46:20.861Z,42.30
2022-11-01T19:48:49.508Z,39.50
2022-11-01T19:51:24.131Z,40.33
2022-11-01T19:53:53.563Z,40.10
2022-11-01T19:56:23.396Z,39.60
2022-11-01T19:59:01.078Z,45.17
2022-11-01T20:01:42.960Z,37.03
2022-11-01T20:04:24.572Z,34.60
2022-11-01T20:07:12.485Z,36.90
2022-11-01T20:09:39.798Z,32.20
2022-11-01T20:12:08.771Z,38.53
2022-11-01T20:14:36.524Z,38.30
2022-11-01T20:17:03.641Z,40.00
2022-11-01T20:19:31.567Z,38.27
2022-11-01T20:21:59.403Z,38.93
2022-11-01T20:24:27.639Z,34.50
2022-11-01T20:26:55.368Z,41.03
2022-11-01T20:29:23.273Z,38.03
2022-11-01T20:31:51.397Z,35.50
2022-11-01T20:34:18.549Z,40.60
2022-11-01T20:37:02.266Z,34.70
2022-11-01T20:39:37.009Z,37.47
2022-11-01T20:42:04.410Z,37.00
2022-11-01T20:44:36.445Z,39.57
2022-11-01T20:47:03.686Z,35.80
2022-11-01T20:49:30.790Z,42.43
2022-11-01T20:52:13.556Z,40.50
2022-11-01T20:54:45.508Z,36.53
2022-11-01T20:57:27.187Z,43.17
2022-11-01T20:59:55.809Z,39.13
2022-11-01T21:02:23.377Z,42.63
2022-11-01T21:05:23.093Z,42.77
2022-11-01T21:08:12.940Z,38.33
2022-11-01T21:10:42.813Z,42.17
2022-11-01T21:13:42.684Z,39.73
2022-11-01T21:16:23.086Z,38.07
2022-11-01T21:18:54.212Z,34.87
2022-11-01T21:21:32.604Z,36.67
2022-11-01T21:24:01.473Z,36.07
2022-11-01T21:26:36.236Z,38.43
2022-11-01T21:29:28.041Z,31.30
2022-11-01T21:31:56.604Z,36.83
2022-11-01T21:34:30.271Z,35.60
2022-11-01T21:36:59.061Z,39.13
2022-11-01T21:39:29.335Z,32.30
2022-11-01T21:42:01.735Z,36.70
2022-11-01T21:44:46.065Z,38.87
2022-11-01T21:47:25.145Z,35.63
2022-11-01T21:49:52.195Z,38.77
2022-11-01T21:52:19.859Z,31.33
2022-11-01T21:54:47.994Z,32.00
2022-11-01T21:57:16.686Z,42.20
2022-11-01T21:59:44.336Z,35.57
2022-11-01T22:02:14.115Z,37.13
2022-11-01T22:04:41.777Z,39.33
2022-11-01T22:07:10.174Z,40.63
2022-11-01T22:09:38.195Z,38.73
2022-11-01T22:12:07.122Z,33.50
2022-11-01T22:14:34.984Z,43.33
2022-11-01T22:17:02.156Z,33.67
2022-11-01T22:19:29.235Z,38.87
2022-11-01T22:21:56.295Z,35.70
2022-11-01T22:24:24.415Z,34.17
2022-11-01T22:26:51.524Z,36.80
2022-11-01T22:29:18.586Z,35.33
2022-11-01T22:31:45.600Z,40.60
2022-11-01T22:34:12.661Z,45.60
2022-11-01T22:36:42.695Z,39.30
2022-11-01T22:39:30.147Z,48.00
2022-11-01T22:41:57.140Z,41.67
2022-11-01T22:44:31.915Z,38.67
2022-11-01T22:47:02.347Z,37.80
2022-11-01T22:49:56.852Z,43.47
2022-11-01T22:52:45.210Z,36.27
2022-11-01T22:55:13.058Z,42.73
2022-11-01T22:57:58.825Z,36.93
2022-11-01T23:00:31.493Z,38.13
2022-11-01T23:03:26.347Z,40.30
2022-11-01T23:05:57.615Z,31.87
2022-11-01T23:08:30.735Z,36.60
2022-11-01T23:10:58.420Z,35.90
2022-11-01T23:13:54.141Z,35.70
2022-11-01T23:16:30.639Z,35.20
2022-11-01T23:19:01.933Z,38.23
2022-11-01T23:21:29.439Z,33.90
2022-11-01T23:23:56.560Z,33.23
2022-11-01T23:26:24.370Z,42.40
2022-11-01T23:28:56.781Z,37.00
2022-11-01T23:31:26.021Z,37.93
2022-11-01T23:33:52.959Z,41.63
2022-11-01T23:36:35.559Z,38.37
2022-11-01T23:39:11.910Z,40.33
2022-11-01T23:41:49.474Z,37.17
2022-11-01T23:44:37.982Z,30.60
2022-11-01T23:47:25.481Z,34.97
2022-11-01T23:50:25.862Z,33.43
2022-11-01T23:53:01.310Z,33.17
2022-11-01T23:55:38.200Z,35.57
2022-11-01T23:58:20.038Z,39.00
